»·PEaware :: N5WZ KSQL-KSBA

N5WZ :: KSQL-KSBA

FLIGHT INFORMATION

Flight Status: Arrived
Operator: Privately registered:
United States
More flights under this callsign
Pilot: William Z. (5620)
Aircraft: SOCATA TBM-900
(TBM9)
More flights by this aircraft type
Origin: KSQL San Carlos
United States
Destination: KSBA Santa Barbara Mun
United States
More flights between these airports :: More routes between these airports
Route: OSI EUGEN V27 MQO T261 GVO
File this flight plan on PilotEdge
Remarks:
Altitude:
(Current/Filed)
25,000ft
Speed:
(Current/Filed)
300kts
Departed: 27-Jul-20 02:55 PM
Arrived: 27-Jul-20 03:48 PM
Distance/Time
Traveled:
219nm/0:52
Distance/Time
To Go:
Arrived

Flight Plot

Page will automatically refresh every two minutes.


Map Options




Map Legend


Flown Route
Filed Route
Departure Airport
Arrival Airport
Navaid (VOR, NDB)
Fix

Horizontal Profiles

Position Reports

Time Latitude Longitude Heading Altitude Ground
Speed
27-Jul-20 14:28 37.511848 -122.251698 317 10ft 0kts
27-Jul-20 14:29 37.511848 -122.251698 317 10ft 0kts
27-Jul-20 14:30 37.511848 -122.251698 317 10ft 0kts
27-Jul-20 14:31 37.511848 -122.251698 317 10ft 0kts
27-Jul-20 14:32 37.511848 -122.251698 317 10ft 0kts
27-Jul-20 14:33 37.511848 -122.251698 317 10ft 0kts
27-Jul-20 14:34 37.511848 -122.251698 317 10ft 0kts
27-Jul-20 14:35 37.511848 -122.251698 317 10ft 0kts
27-Jul-20 14:36 37.511848 -122.251698 317 10ft 0kts
27-Jul-20 14:37 37.511848 -122.251698 317 10ft 0kts
27-Jul-20 14:38 37.511848 -122.251698 317 10ft 0kts
27-Jul-20 14:39 37.511848 -122.251698 317 10ft 0kts
27-Jul-20 14:40 37.511848 -122.251698 317 10ft 0kts
27-Jul-20 14:41 37.511848 -122.251698 317 10ft 0kts
27-Jul-20 14:42 37.511848 -122.251698 317 10ft 0kts
27-Jul-20 14:43 37.511848 -122.251698 317 10ft 0kts
27-Jul-20 14:44 37.511848 -122.251698 317 10ft 0kts
27-Jul-20 14:45 37.511848 -122.251698 317 10ft 0kts
27-Jul-20 14:46 37.511848 -122.251698 317 10ft 0kts
27-Jul-20 14:47 37.511848 -122.251698 317 10ft 0kts
27-Jul-20 14:48 37.512261 -122.251203 48 10ft 1kts
27-Jul-20 14:49 37.512266 -122.251196 48 10ft 0kts
27-Jul-20 14:50 37.511724 -122.250045 137 9ft 10kts
27-Jul-20 14:51 37.509481 -122.247504 138 9ft 2kts
27-Jul-20 14:52 37.509104 -122.246783 46 9ft 3kts
27-Jul-20 14:53 37.509409 -122.246765 309 9ft 0kts
27-Jul-20 14:54 37.517196 -122.272503 231 1525ft 125kts
27-Jul-20 14:55 37.485660 -122.268165 164 3581ft 110kts
27-Jul-20 14:56 37.449505 -122.266736 191 4992ft 150kts
27-Jul-20 14:57 37.398295 -122.279792 191 6754ft 181kts
27-Jul-20 14:58 37.351996 -122.303474 202 8847ft 178kts
27-Jul-20 14:59 37.306549 -122.328301 201 10939ft 181kts
27-Jul-20 15:00 37.259430 -122.353941 201 13262ft 183kts
27-Jul-20 15:01 37.210972 -122.380331 203 15884ft 178kts
27-Jul-20 15:02 37.163360 -122.406194 205 18521ft 176kts
27-Jul-20 15:03 37.107147 -122.436769 205 19815ft 223kts
27-Jul-20 15:04 37.051427 -122.406718 148 22371ft 211kts
27-Jul-20 15:05 37.000841 -122.361730 148 24484ft 230kts
27-Jul-20 15:06 36.939030 -122.306823 148 25056ft 289kts
27-Jul-20 15:07 36.865052 -122.241179 147 25040ft 316kts
27-Jul-20 15:08 36.787158 -122.172284 147 25037ft 323kts
27-Jul-20 15:09 36.709156 -122.103387 148 25030ft 319kts
27-Jul-20 15:10 36.631619 -122.035130 148 25023ft 318kts
27-Jul-20 15:11 36.553689 -121.966705 148 25023ft 317kts
27-Jul-20 15:12 36.476217 -121.898347 147 25035ft 317kts
27-Jul-20 15:13 36.398808 -121.830635 148 25037ft 317kts
27-Jul-20 15:14 36.322043 -121.763942 148 25037ft 317kts
27-Jul-20 15:15 36.245128 -121.697302 148 25037ft 317kts
27-Jul-20 15:16 36.166345 -121.634106 160 25037ft 312kts
27-Jul-20 15:17 36.081074 -121.589708 160 25038ft 313kts
27-Jul-20 15:18 35.995185 -121.544918 160 25038ft 313kts
27-Jul-20 15:19 35.908626 -121.499884 160 25010ft 314kts
27-Jul-20 15:20 35.821797 -121.454823 160 24984ft 314kts
27-Jul-20 15:21 35.735482 -121.410132 160 24984ft 314kts
27-Jul-20 15:22 35.649818 -121.365882 160 24984ft 314kts
27-Jul-20 15:23 35.585401 -121.283522 130 24980ft 323kts
27-Jul-20 15:24 35.526667 -121.190457 130 24980ft 323kts
27-Jul-20 15:25 35.466924 -121.096200 130 24833ft 328kts
27-Jul-20 15:26 35.403848 -120.996958 130 23318ft 349kts
27-Jul-20 15:27 35.339542 -120.896066 130 21656ft 345kts
27-Jul-20 15:28 35.276668 -120.797683 129 20028ft 335kts
27-Jul-20 15:29 35.205144 -120.715354 144 18444ft 326kts
27-Jul-20 15:30 35.127639 -120.642952 144 16890ft 322kts
27-Jul-20 15:31 35.052977 -120.573313 143 15385ft 308kts
27-Jul-20 15:32 34.980397 -120.505777 143 13864ft 303kts
27-Jul-20 15:33 34.908415 -120.438898 143 12390ft 293kts
27-Jul-20 15:34 34.839921 -120.375435 142 11022ft 285kts
27-Jul-20 15:35 34.773054 -120.313589 142 9692ft 280kts
27-Jul-20 15:36 34.711417 -120.256684 142 9031ft 249kts
27-Jul-20 15:37 34.657885 -120.207367 142 9034ft 239kts
27-Jul-20 15:38 34.607377 -120.144283 132 8172ft 270kts
27-Jul-20 15:39 34.552103 -120.071381 132 6662ft 272kts
27-Jul-20 15:40 34.499610 -120.002375 132 5804ft 241kts
27-Jul-20 15:41 34.478437 -119.930838 87 4839ft 204kts
27-Jul-20 15:42 34.480740 -119.857712 87 2666ft 198kts
27-Jul-20 15:43 34.471068 -119.792017 100 1513ft 162kts
27-Jul-20 15:45 34.446374 -119.767313 192 1506ft 115kts
27-Jul-20 15:46 34.430637 -119.789356 251 1230ft 75kts
27-Jul-20 15:47 34.428358 -119.815570 264 433ft 75kts
27-Jul-20 15:48 34.427765 -119.840642 268 14ft 40kts
27-Jul-20 15:49 34.428428 -119.845442 63 15ft 13kts
27-Jul-20 15:50 34.430421 -119.840491 64 13ft 11kts
27-Jul-20 15:51 34.431997 -119.835888 339 14ft 6kts
27-Jul-20 15:52 34.432939 -119.835895 72 15ft 0kts

Navigation Log

Ident Type
Flight plan parsing failed, navigation log unavailable